sensor_id;sensor_type;location;lat;lon;timestamp;pressure;altitude;pressure_sealevel;temperature
70050;BMP180;57391;51.306;22.680;2022-12-07T00:01:38;98917.60;;;2.18
70050;BMP180;57391;51.306;22.680;2022-12-07T00:04:11;98915.40;;;2.20
70050;BMP180;57391;51.306;22.680;2022-12-07T00:06:41;98911.00;;;2.20
70050;BMP180;57391;51.306;22.680;2022-12-07T00:09:13;98907.40;;;2.20
70050;BMP180;57391;51.306;22.680;2022-12-07T00:11:41;98910.80;;;2.20
70050;BMP180;57391;51.306;22.680;2022-12-07T00:25:15;98902.00;;;2.30
70050;BMP180;57391;51.306;22.680;2022-12-07T00:27:42;98901.80;;;2.30
70050;BMP180;57391;51.306;22.680;2022-12-07T00:30:10;98901.40;;;2.30
70050;BMP180;57391;51.306;22.680;2022-12-07T00:32:38;98903.00;;;2.32
70050;BMP180;57391;51.306;22.680;2022-12-07T00:35:05;98898.60;;;2.40
70050;BMP180;57391;51.306;22.680;2022-12-07T00:37:32;98901.00;;;2.40
70050;BMP180;57391;51.306;22.680;2022-12-07T00:39:59;98901.20;;;2.40
70050;BMP180;57391;51.306;22.680;2022-12-07T00:42:28;98900.80;;;2.42
70050;BMP180;57391;51.306;22.680;2022-12-07T00:44:55;98902.80;;;2.50
70050;BMP180;57391;51.306;22.680;2022-12-07T00:47:22;98897.40;;;2.50
70050;BMP180;57391;51.306;22.680;2022-12-07T00:49:49;98900.20;;;2.50
70050;BMP180;57391;51.306;22.680;2022-12-07T00:52:17;98897.60;;;2.50
70050;BMP180;57391;51.306;22.680;2022-12-07T00:54:44;98902.00;;;2.50
70050;BMP180;57391;51.306;22.680;2022-12-07T00:57:11;98907.40;;;2.50
70050;BMP180;57391;51.306;22.680;2022-12-07T00:59:38;98903.00;;;2.54
70050;BMP180;57391;51.306;22.680;2022-12-07T01:02:04;98904.00;;;2.60
70050;BMP180;57391;51.306;22.680;2022-12-07T01:04:34;98907.80;;;2.60
70050;BMP180;57391;51.306;22.680;2022-12-07T01:07:01;98901.20;;;2.60
70050;BMP180;57391;51.306;22.680;2022-12-07T01:09:28;98893.00;;;2.60
70050;BMP180;57391;51.306;22.680;2022-12-07T01:11:55;98896.40;;;2.60
70050;BMP180;57391;51.306;22.680;2022-12-07T01:14:22;98891.80;;;2.60
70050;BMP180;57391;51.306;22.680;2022-12-07T01:16:49;98886.80;;;2.60
70050;BMP180;57391;51.306;22.680;2022-12-07T01:19:17;98889.40;;;2.60
70050;BMP180;57391;51.306;22.680;2022-12-07T01:21:43;98892.80;;;2.60
70050;BMP180;57391;51.306;22.680;2022-12-07T01:24:11;98887.00;;;2.60
70050;BMP180;57391;51.306;22.680;2022-12-07T01:26:38;98888.60;;;2.64
70050;BMP180;57391;51.306;22.680;2022-12-07T01:29:05;98891.20;;;2.64
70050;BMP180;57391;51.306;22.680;2022-12-07T01:31:33;98892.00;;;2.70
70050;BMP180;57391;51.306;22.680;2022-12-07T01:34:01;98883.60;;;2.70
70050;BMP180;57391;51.306;22.680;2022-12-07T01:36:34;98883.80;;;2.70
70050;BMP180;57391;51.306;22.680;2022-12-07T01:39:06;98885.40;;;2.70
70050;BMP180;57391;51.306;22.680;2022-12-07T01:41:38;98885.60;;;2.70
70050;BMP180;57391;51.306;22.680;2022-12-07T01:44:30;98887.60;;;2.78
70050;BMP180;57391;51.306;22.680;2022-12-07T01:47:02;98886.00;;;2.80
70050;BMP180;57391;51.306;22.680;2022-12-07T01:54:43;98886.60;;;2.80
70050;BMP180;57391;51.306;22.680;2022-12-07T01:57:13;98887.60;;;2.80
70050;BMP180;57391;51.306;22.680;2022-12-07T01:59:43;98880.80;;;2.88
70050;BMP180;57391;51.306;22.680;2022-12-07T02:02:23;98881.20;;;2.90
70050;BMP180;57391;51.306;22.680;2022-12-07T02:04:55;98877.40;;;2.90
70050;BMP180;57391;51.306;22.680;2022-12-07T02:07:26;98882.40;;;2.90
70050;BMP180;57391;51.306;22.680;2022-12-07T02:09:54;98884.00;;;2.90
70050;BMP180;57391;51.306;22.680;2022-12-07T02:12:24;98881.60;;;2.90
70050;BMP180;57391;51.306;22.680;2022-12-07T02:14:52;98876.80;;;2.90
70050;BMP180;57391;51.306;22.680;2022-12-07T02:18:02;98872.80;;;2.90
70050;BMP180;57391;51.306;22.680;2022-12-07T02:26:29;98865.20;;;2.90
70050;BMP180;57391;51.306;22.680;2022-12-07T02:32:56;98868.60;;;2.90
70050;BMP180;57391;51.306;22.680;2022-12-07T02:35:44;98868.00;;;2.90
70050;BMP180;57391;51.306;22.680;2022-12-07T02:40:55;98864.40;;;2.90
70050;BMP180;57391;51.306;22.680;2022-12-07T02:43:38;98866.20;;;2.82
70050;BMP180;57391;51.306;22.680;2022-12-07T02:46:14;98864.80;;;2.80
70050;BMP180;57391;51.306;22.680;2022-12-07T02:48:43;98862.00;;;2.80
70050;BMP180;57391;51.306;22.680;2022-12-07T02:51:11;98856.80;;;2.80
70050;BMP180;57391;51.306;22.680;2022-12-07T02:53:42;98857.60;;;2.80
70050;BMP180;57391;51.306;22.680;2022-12-07T02:56:45;98856.20;;;2.80
70050;BMP180;57391;51.306;22.680;2022-12-07T03:04:52;98855.60;;;2.90
70050;BMP180;57391;51.306;22.680;2022-12-07T03:07:32;98856.00;;;2.86
70050;BMP180;57391;51.306;22.680;2022-12-07T03:10:19;98856.60;;;2.88
70050;BMP180;57391;51.306;22.680;2022-12-07T03:16:08;98852.00;;;2.80
70050;BMP180;57391;51.306;22.680;2022-12-07T03:18:49;98850.20;;;2.80
70050;BMP180;57391;51.306;22.680;2022-12-07T03:21:25;98850.20;;;2.80
70050;BMP180;57391;51.306;22.680;2022-12-07T03:24:00;98848.40;;;2.72
70050;BMP180;57391;51.306;22.680;2022-12-07T03:26:37;98844.00;;;2.70
70050;BMP180;57391;51.306;22.680;2022-12-07T03:29:22;98840.80;;;2.70
70050;BMP180;57391;51.306;22.680;2022-12-07T03:32:04;98840.00;;;2.68
70050;BMP180;57391;51.306;22.680;2022-12-07T03:34:47;98841.20;;;2.60
70050;BMP180;57391;51.306;22.680;2022-12-07T03:37:52;98835.60;;;2.60
70050;BMP180;57391;51.306;22.680;2022-12-07T03:40:37;98833.80;;;2.60
70050;BMP180;57391;51.306;22.680;2022-12-07T03:43:06;98835.00;;;2.60
70050;BMP180;57391;51.306;22.680;2022-12-07T03:45:40;98834.40;;;2.60
70050;BMP180;57391;51.306;22.680;2022-12-07T03:50:55;98835.00;;;2.50
70050;BMP180;57391;51.306;22.680;2022-12-07T03:53:58;98831.00;;;2.50
70050;BMP180;57391;51.306;22.680;2022-12-07T03:56:28;98832.00;;;2.40
70050;BMP180;57391;51.306;22.680;2022-12-07T03:58:56;98826.00;;;2.40
70050;BMP180;57391;51.306;22.680;2022-12-07T04:01:24;98828.80;;;2.30
70050;BMP180;57391;51.306;22.680;2022-12-07T04:03:51;98825.20;;;2.30
70050;BMP180;57391;51.306;22.680;2022-12-07T04:06:19;98824.00;;;2.30
70050;BMP180;57391;51.306;22.680;2022-12-07T04:08:46;98825.60;;;2.28
70050;BMP180;57391;51.306;22.680;2022-12-07T04:11:13;98824.60;;;2.20
70050;BMP180;57391;51.306;22.680;2022-12-07T04:13:40;98822.00;;;2.20
70050;BMP180;57391;51.306;22.680;2022-12-07T04:16:26;98819.80;;;2.20
70050;BMP180;57391;51.306;22.680;2022-12-07T04:18:53;98819.60;;;2.20
70050;BMP180;57391;51.306;22.680;2022-12-07T04:21:20;98815.60;;;2.18
70050;BMP180;57391;51.306;22.680;2022-12-07T04:23:48;98811.40;;;2.10
70050;BMP180;57391;51.306;22.680;2022-12-07T04:26:15;98812.60;;;2.10
70050;BMP180;57391;51.306;22.680;2022-12-07T04:28:42;98817.20;;;2.10
70050;BMP180;57391;51.306;22.680;2022-12-07T04:31:09;98812.60;;;2.10
70050;BMP180;57391;51.306;22.680;2022-12-07T04:33:36;98812.20;;;2.10
70050;BMP180;57391;51.306;22.680;2022-12-07T04:36:04;98816.00;;;2.10
70050;BMP180;57391;51.306;22.680;2022-12-07T04:38:31;98813.00;;;2.10
70050;BMP180;57391;51.306;22.680;2022-12-07T04:41:08;98817.00;;;2.10
70050;BMP180;57391;51.306;22.680;2022-12-07T04:43:36;98813.00;;;2.04
70050;BMP180;57391;51.306;22.680;2022-12-07T04:46:03;98812.40;;;2.00
70050;BMP180;57391;51.306;22.680;2022-12-07T04:48:31;98813.00;;;2.00
70050;BMP180;57391;51.306;22.680;2022-12-07T04:50:58;98811.00;;;2.00
70050;BMP180;57391;51.306;22.680;2022-12-07T04:53:25;98811.00;;;2.00
70050;BMP180;57391;51.306;22.680;2022-12-07T04:55:51;98810.00;;;2.00
70050;BMP180;57391;51.306;22.680;2022-12-07T04:58:19;98811.60;;;2.00
70050;BMP180;57391;51.306;22.680;2022-12-07T05:00:46;98808.40;;;2.00
70050;BMP180;57391;51.306;22.680;2022-12-07T05:03:13;98810.00;;;1.90
70050;BMP180;57391;51.306;22.680;2022-12-07T05:05:41;98805.60;;;1.90
70050;BMP180;57391;51.306;22.680;2022-12-07T05:08:08;98807.40;;;1.90
70050;BMP180;57391;51.306;22.680;2022-12-07T05:10:36;98809.20;;;1.90
70050;BMP180;57391;51.306;22.680;2022-12-07T05:13:03;98808.40;;;1.86
70050;BMP180;57391;51.306;22.680;2022-12-07T05:15:31;98808.00;;;1.80
70050;BMP180;57391;51.306;22.680;2022-12-07T05:17:58;98805.40;;;1.80
70050;BMP180;57391;51.306;22.680;2022-12-07T05:20:25;98804.60;;;1.80
70050;BMP180;57391;51.306;22.680;2022-12-07T05:22:53;98800.60;;;1.80
70050;BMP180;57391;51.306;22.680;2022-12-07T05:25:20;98794.80;;;1.80
70050;BMP180;57391;51.306;22.680;2022-12-07T05:27:47;98795.40;;;1.80
70050;BMP180;57391;51.306;22.680;2022-12-07T05:30:15;98798.00;;;1.80
70050;BMP180;57391;51.306;22.680;2022-12-07T05:32:42;98795.00;;;1.80
70050;BMP180;57391;51.306;22.680;2022-12-07T05:35:10;98794.60;;;1.80
70050;BMP180;57391;51.306;22.680;2022-12-07T05:37:37;98802.80;;;1.80
70050;BMP180;57391;51.306;22.680;2022-12-07T05:40:06;98801.20;;;1.80
70050;BMP180;57391;51.306;22.680;2022-12-07T05:42:33;98801.00;;;1.80
70050;BMP180;57391;51.306;22.680;2022-12-07T05:45:01;98796.80;;;1.80
70050;BMP180;57391;51.306;22.680;2022-12-07T05:47:29;98797.80;;;1.78
70050;BMP180;57391;51.306;22.680;2022-12-07T05:49:56;98800.80;;;1.80
70050;BMP180;57391;51.306;22.680;2022-12-07T05:52:23;98804.00;;;1.80
70050;BMP180;57391;51.306;22.680;2022-12-07T05:54:51;98801.60;;;1.80
70050;BMP180;57391;51.306;22.680;2022-12-07T05:57:19;98799.80;;;1.80
70050;BMP180;57391;51.306;22.680;2022-12-07T05:59:46;98804.40;;;1.80
70050;BMP180;57391;51.306;22.680;2022-12-07T06:02:15;98803.80;;;1.80
70050;BMP180;57391;51.306;22.680;2022-12-07T06:04:46;98804.00;;;1.82
70050;BMP180;57391;51.306;22.680;2022-12-07T06:07:16;98806.20;;;1.86
70050;BMP180;57391;51.306;22.680;2022-12-07T06:09:43;98804.20;;;1.88
70050;BMP180;57391;51.306;22.680;2022-12-07T06:12:12;98807.20;;;1.90
70050;BMP180;57391;51.306;22.680;2022-12-07T06:14:58;98804.60;;;1.90
70050;BMP180;57391;51.306;22.680;2022-12-07T06:17:25;98808.00;;;1.90
70050;BMP180;57391;51.306;22.680;2022-12-07T06:19:52;98808.60;;;1.90
70050;BMP180;57391;51.306;22.680;2022-12-07T06:22:20;98804.80;;;1.90
70050;BMP180;57391;51.306;22.680;2022-12-07T06:24:47;98809.00;;;1.90
70050;BMP180;57391;51.306;22.680;2022-12-07T06:27:14;98805.20;;;1.90
70050;BMP180;57391;51.306;22.680;2022-12-07T11:30:19;98794.40;;;2.22
70050;BMP180;57391;51.306;22.680;2022-12-07T11:33:09;98794.60;;;2.30
70050;BMP180;57391;51.306;22.680;2022-12-07T11:38:33;98800.60;;;2.30
70050;BMP180;57391;51.306;22.680;2022-12-07T11:41:06;98803.20;;;2.30
70050;BMP180;57391;51.306;22.680;2022-12-07T11:44:05;98802.00;;;2.30
70050;BMP180;57391;51.306;22.680;2022-12-07T11:46:50;98802.20;;;2.30
70050;BMP180;57391;51.306;22.680;2022-12-07T11:52:04;98802.00;;;2.30
70050;BMP180;57391;51.306;22.680;2022-12-07T11:54:41;98797.20;;;2.30
70050;BMP180;57391;51.306;22.680;2022-12-07T11:57:24;98803.00;;;2.30
70050;BMP180;57391;51.306;22.680;2022-12-07T12:00:04;98805.00;;;2.30
70050;BMP180;57391;51.306;22.680;2022-12-07T12:02:47;98802.80;;;2.30
70050;BMP180;57391;51.306;22.680;2022-12-07T12:05:21;98805.80;;;2.30
70050;BMP180;57391;51.306;22.680;2022-12-07T12:08:13;98804.40;;;2.30
70050;BMP180;57391;51.306;22.680;2022-12-07T12:23:16;98804.40;;;2.40
70050;BMP180;57391;51.306;22.680;2022-12-07T12:25:52;98806.80;;;2.40
70050;BMP180;57391;51.306;22.680;2022-12-07T12:28:42;98809.00;;;2.42
70050;BMP180;57391;51.306;22.680;2022-12-07T12:33:50;98807.80;;;2.50
70050;BMP180;57391;51.306;22.680;2022-12-07T12:39:08;98818.20;;;2.50
70050;BMP180;57391;51.306;22.680;2022-12-07T12:47:01;98810.40;;;2.50
70050;BMP180;57391;51.306;22.680;2022-12-07T12:49:33;98807.60;;;2.50
70050;BMP180;57391;51.306;22.680;2022-12-07T12:55:13;98810.80;;;2.58
70050;BMP180;57391;51.306;22.680;2022-12-07T13:03:38;98801.60;;;2.60
70050;BMP180;57391;51.306;22.680;2022-12-07T13:06:35;98809.20;;;2.60
70050;BMP180;57391;51.306;22.680;2022-12-07T13:09:24;98816.80;;;2.64
70050;BMP180;57391;51.306;22.680;2022-12-07T13:12:10;98815.60;;;2.64
70050;BMP180;57391;51.306;22.680;2022-12-07T13:20:04;98828.00;;;2.60
70050;BMP180;57391;51.306;22.680;2022-12-07T13:25:23;98821.60;;;2.60
70050;BMP180;57391;51.306;22.680;2022-12-07T13:28:16;98817.80;;;2.60
70050;BMP180;57391;51.306;22.680;2022-12-07T13:31:00;98817.40;;;2.60
70050;BMP180;57391;51.306;22.680;2022-12-07T13:33:29;98820.80;;;2.60
70050;BMP180;57391;51.306;22.680;2022-12-07T13:35:57;98822.40;;;2.60
70050;BMP180;57391;51.306;22.680;2022-12-07T13:38:33;98823.40;;;2.60
70050;BMP180;57391;51.306;22.680;2022-12-07T13:41:15;98819.80;;;2.60
70050;BMP180;57391;51.306;22.680;2022-12-07T13:44:11;98813.80;;;2.52
70050;BMP180;57391;51.306;22.680;2022-12-07T13:46:53;98815.80;;;2.52
70050;BMP180;57391;51.306;22.680;2022-12-07T13:51:51;98817.60;;;2.50
70050;BMP180;57391;51.306;22.680;2022-12-07T13:54:20;98818.80;;;2.50
70050;BMP180;57391;51.306;22.680;2022-12-07T13:56:51;98815.00;;;2.50
70050;BMP180;57391;51.306;22.680;2022-12-07T13:59:23;98817.40;;;2.50
70050;BMP180;57391;51.306;22.680;2022-12-07T14:01:53;98822.40;;;2.50
70050;BMP180;57391;51.306;22.680;2022-12-07T14:04:34;98823.20;;;2.50
70050;BMP180;57391;51.306;22.680;2022-12-07T14:10:27;98819.40;;;2.50
70050;BMP180;57391;51.306;22.680;2022-12-07T14:12:57;98821.40;;;2.50
70050;BMP180;57391;51.306;22.680;2022-12-07T14:15:33;98819.20;;;2.50
70050;BMP180;57391;51.306;22.680;2022-12-07T14:18:02;98818.60;;;2.48
70050;BMP180;57391;51.306;22.680;2022-12-07T14:20:40;98816.60;;;2.44
70050;BMP180;57391;51.306;22.680;2022-12-07T14:23:25;98812.40;;;2.40
70050;BMP180;57391;51.306;22.680;2022-12-07T14:25:53;98811.60;;;2.40
70050;BMP180;57391;51.306;22.680;2022-12-07T14:28:40;98818.60;;;2.40
70050;BMP180;57391;51.306;22.680;2022-12-07T14:31:21;98813.60;;;2.40
70050;BMP180;57391;51.306;22.680;2022-12-07T14:33:51;98821.40;;;2.40
70050;BMP180;57391;51.306;22.680;2022-12-07T14:36:18;98815.40;;;2.40
70050;BMP180;57391;51.306;22.680;2022-12-07T14:38:45;98816.20;;;2.40
70050;BMP180;57391;51.306;22.680;2022-12-07T14:41:19;98819.60;;;2.40
70050;BMP180;57391;51.306;22.680;2022-12-07T14:44:12;98821.20;;;2.40
70050;BMP180;57391;51.306;22.680;2022-12-07T14:46:39;98826.20;;;2.38
70050;BMP180;57391;51.306;22.680;2022-12-07T14:49:07;98825.60;;;2.32
70050;BMP180;57391;51.306;22.680;2022-12-07T14:51:38;98827.00;;;2.32
70050;BMP180;57391;51.306;22.680;2022-12-07T14:54:30;98831.20;;;2.34
70050;BMP180;57391;51.306;22.680;2022-12-07T14:56:58;98830.80;;;2.36
70050;BMP180;57391;51.306;22.680;2022-12-07T14:59:25;98826.80;;;2.30
70050;BMP180;57391;51.306;22.680;2022-12-07T15:01:53;98834.00;;;2.34
70050;BMP180;57391;51.306;22.680;2022-12-07T15:04:20;98828.60;;;2.32
70050;BMP180;57391;51.306;22.680;2022-12-07T15:07:04;98826.20;;;2.34
70050;BMP180;57391;51.306;22.680;2022-12-07T15:09:31;98828.60;;;2.40
70050;BMP180;57391;51.306;22.680;2022-12-07T15:11:59;98829.80;;;2.38
70050;BMP180;57391;51.306;22.680;2022-12-07T15:14:27;98830.60;;;2.38
70050;BMP180;57391;51.306;22.680;2022-12-07T15:16:54;98833.60;;;2.40
70050;BMP180;57391;51.306;22.680;2022-12-07T15:19:23;98830.60;;;2.40
70050;BMP180;57391;51.306;22.680;2022-12-07T15:21:53;98820.20;;;2.40
70050;BMP180;57391;51.306;22.680;2022-12-07T15:24:20;98820.40;;;2.40
70050;BMP180;57391;51.306;22.680;2022-12-07T15:26:48;98818.40;;;2.40
70050;BMP180;57391;51.306;22.680;2022-12-07T15:29:15;98820.60;;;2.40
70050;BMP180;57391;51.306;22.680;2022-12-07T15:31:43;98821.20;;;2.40
70050;BMP180;57391;51.306;22.680;2022-12-07T15:34:12;98822.60;;;2.40
70050;BMP180;57391;51.306;22.680;2022-12-07T15:36:39;98817.60;;;2.40
70050;BMP180;57391;51.306;22.680;2022-12-07T15:39:08;98816.60;;;2.40
70050;BMP180;57391;51.306;22.680;2022-12-07T15:41:35;98823.00;;;2.40
70050;BMP180;57391;51.306;22.680;2022-12-07T15:44:03;98819.60;;;2.40
70050;BMP180;57391;51.306;22.680;2022-12-07T15:46:49;98815.80;;;2.40
70050;BMP180;57391;51.306;22.680;2022-12-07T16:20:42;98830.60;;;2.58
70050;BMP180;57391;51.306;22.680;2022-12-07T16:23:09;98832.60;;;2.68
70050;BMP180;57391;51.306;22.680;2022-12-07T16:25:36;98834.80;;;2.60
70050;BMP180;57391;51.306;22.680;2022-12-07T16:28:04;98830.80;;;2.52
70050;BMP180;57391;51.306;22.680;2022-12-07T16:30:31;98836.20;;;2.50
70050;BMP180;57391;51.306;22.680;2022-12-07T16:32:58;98830.40;;;2.50
70050;BMP180;57391;51.306;22.680;2022-12-07T16:35:26;98828.40;;;2.50
70050;BMP180;57391;51.306;22.680;2022-12-07T16:37:53;98829.20;;;2.44
70050;BMP180;57391;51.306;22.680;2022-12-07T16:40:21;98830.20;;;2.40
70050;BMP180;57391;51.306;22.680;2022-12-07T16:42:48;98825.60;;;2.40
70050;BMP180;57391;51.306;22.680;2022-12-07T16:45:16;98826.20;;;2.40
70050;BMP180;57391;51.306;22.680;2022-12-07T16:47:44;98821.80;;;2.38
70050;BMP180;57391;51.306;22.680;2022-12-07T16:50:11;98822.40;;;2.40
70050;BMP180;57391;51.306;22.680;2022-12-07T16:52:39;98823.60;;;2.34
70050;BMP180;57391;51.306;22.680;2022-12-07T16:55:06;98823.60;;;2.32
70050;BMP180;57391;51.306;22.680;2022-12-07T16:57:34;98825.60;;;2.34
70050;BMP180;57391;51.306;22.680;2022-12-07T17:00:02;98822.80;;;2.32
70050;BMP180;57391;51.306;22.680;2022-12-07T17:02:31;98822.40;;;2.30
70050;BMP180;57391;51.306;22.680;2022-12-07T17:04:58;98821.80;;;2.30
70050;BMP180;57391;51.306;22.680;2022-12-07T17:07:25;98817.60;;;2.30
70050;BMP180;57391;51.306;22.680;2022-12-07T17:09:53;98820.20;;;2.30
70050;BMP180;57391;51.306;22.680;2022-12-07T17:12:20;98820.80;;;2.30
70050;BMP180;57391;51.306;22.680;2022-12-07T17:14:48;98821.20;;;2.30
70050;BMP180;57391;51.306;22.680;2022-12-07T17:17:34;98817.40;;;2.30
70050;BMP180;57391;51.306;22.680;2022-12-07T17:20:02;98820.80;;;2.30
70050;BMP180;57391;51.306;22.680;2022-12-07T17:22:32;98821.20;;;2.30
70050;BMP180;57391;51.306;22.680;2022-12-07T17:24:59;98822.40;;;2.30
70050;BMP180;57391;51.306;22.680;2022-12-07T17:27:27;98821.80;;;2.30
70050;BMP180;57391;51.306;22.680;2022-12-07T17:29:54;98822.00;;;2.30
70050;BMP180;57391;51.306;22.680;2022-12-07T17:32:22;98821.20;;;2.30
70050;BMP180;57391;51.306;22.680;2022-12-07T17:34:54;98819.40;;;2.30
70050;BMP180;57391;51.306;22.680;2022-12-07T17:37:22;98821.00;;;2.34
70050;BMP180;57391;51.306;22.680;2022-12-07T17:39:51;98820.60;;;2.34
70050;BMP180;57391;51.306;22.680;2022-12-07T17:42:20;98822.60;;;2.40
70050;BMP180;57391;51.306;22.680;2022-12-07T17:45:06;98821.00;;;2.40
70050;BMP180;57391;51.306;22.680;2022-12-07T17:47:38;98820.60;;;2.40
70050;BMP180;57391;51.306;22.680;2022-12-07T17:50:06;98821.00;;;2.40
70050;BMP180;57391;51.306;22.680;2022-12-07T17:52:38;98826.40;;;2.40
70050;BMP180;57391;51.306;22.680;2022-12-07T17:55:25;98826.20;;;2.40
70050;BMP180;57391;51.306;22.680;2022-12-07T17:57:52;98829.20;;;2.40
70050;BMP180;57391;51.306;22.680;2022-12-07T18:00:20;98824.00;;;2.42
70050;BMP180;57391;51.306;22.680;2022-12-07T18:02:48;98823.60;;;2.42
70050;BMP180;57391;51.306;22.680;2022-12-07T18:05:16;98830.00;;;2.50
70050;BMP180;57391;51.306;22.680;2022-12-07T18:07:46;98823.60;;;2.50
70050;BMP180;57391;51.306;22.680;2022-12-07T18:10:14;98827.00;;;2.50
70050;BMP180;57391;51.306;22.680;2022-12-07T18:12:41;98820.80;;;2.50
70050;BMP180;57391;51.306;22.680;2022-12-07T18:15:09;98821.60;;;2.50
70050;BMP180;57391;51.306;22.680;2022-12-07T18:17:36;98828.00;;;2.50
70050;BMP180;57391;51.306;22.680;2022-12-07T18:20:05;98828.20;;;2.50
70050;BMP180;57391;51.306;22.680;2022-12-07T18:22:35;98832.20;;;2.58
70050;BMP180;57391;51.306;22.680;2022-12-07T18:25:03;98830.60;;;2.60
70050;BMP180;57391;51.306;22.680;2022-12-07T18:27:34;98830.60;;;2.60
70050;BMP180;57391;51.306;22.680;2022-12-07T18:30:02;98837.40;;;2.60
70050;BMP180;57391;51.306;22.680;2022-12-07T18:32:29;98832.00;;;2.60
70050;BMP180;57391;51.306;22.680;2022-12-07T18:34:56;98827.00;;;2.60
70050;BMP180;57391;51.306;22.680;2022-12-07T18:37:23;98829.40;;;2.60
70050;BMP180;57391;51.306;22.680;2022-12-07T18:39:53;98832.20;;;2.60
70050;BMP180;57391;51.306;22.680;2022-12-07T18:42:21;98828.00;;;2.60
70050;BMP180;57391;51.306;22.680;2022-12-07T18:44:48;98830.80;;;2.60
70050;BMP180;57391;51.306;22.680;2022-12-07T18:47:16;98827.80;;;2.60
70050;BMP180;57391;51.306;22.680;2022-12-07T18:49:43;98827.00;;;2.60
70050;BMP180;57391;51.306;22.680;2022-12-07T18:52:15;98828.60;;;2.60
70050;BMP180;57391;51.306;22.680;2022-12-07T18:54:43;98826.20;;;2.56
70050;BMP180;57391;51.306;22.680;2022-12-07T18:57:10;98830.00;;;2.50
70050;BMP180;57391;51.306;22.680;2022-12-07T18:59:38;98829.40;;;2.50
70050;BMP180;57391;51.306;22.680;2022-12-07T19:02:16;98835.40;;;2.40
70050;BMP180;57391;51.306;22.680;2022-12-07T19:04:45;98832.60;;;2.40
70050;BMP180;57391;51.306;22.680;2022-12-07T19:07:13;98829.20;;;2.30
70050;BMP180;57391;51.306;22.680;2022-12-07T19:09:40;98829.60;;;2.26
70050;BMP180;57391;51.306;22.680;2022-12-07T19:12:12;98830.20;;;2.20
70050;BMP180;57391;51.306;22.680;2022-12-07T19:14:40;98831.80;;;2.20
70050;BMP180;57391;51.306;22.680;2022-12-07T19:17:11;98825.20;;;2.10
70050;BMP180;57391;51.306;22.680;2022-12-07T19:19:43;98823.80;;;2.10
70050;BMP180;57391;51.306;22.680;2022-12-07T19:22:17;98833.20;;;2.10
70050;BMP180;57391;51.306;22.680;2022-12-07T19:24:49;98830.40;;;2.10
70050;BMP180;57391;51.306;22.680;2022-12-07T19:27:18;98836.00;;;2.02
70050;BMP180;57391;51.306;22.680;2022-12-07T19:29:47;98836.80;;;2.00
70050;BMP180;57391;51.306;22.680;2022-12-07T19:32:17;98838.00;;;2.00
70050;BMP180;57391;51.306;22.680;2022-12-07T19:34:46;98837.20;;;2.00
70050;BMP180;57391;51.306;22.680;2022-12-07T19:37:15;98840.40;;;2.00
70050;BMP180;57391;51.306;22.680;2022-12-07T19:39:43;98842.20;;;2.00
70050;BMP180;57391;51.306;22.680;2022-12-07T19:42:14;98844.40;;;2.00
70050;BMP180;57391;51.306;22.680;2022-12-07T19:44:42;98848.80;;;2.00
70050;BMP180;57391;51.306;22.680;2022-12-07T19:47:10;98850.60;;;2.00
70050;BMP180;57391;51.306;22.680;2022-12-07T19:49:38;98849.40;;;2.00
70050;BMP180;57391;51.306;22.680;2022-12-07T19:52:10;98847.80;;;2.00
70050;BMP180;57391;51.306;22.680;2022-12-07T19:54:42;98853.60;;;2.00
70050;BMP180;57391;51.306;22.680;2022-12-07T19:57:09;98854.80;;;2.04
70050;BMP180;57391;51.306;22.680;2022-12-07T19:59:42;98855.00;;;2.10
70050;BMP180;57391;51.306;22.680;2022-12-07T20:02:13;98857.20;;;2.10
70050;BMP180;57391;51.306;22.680;2022-12-07T20:04:42;98856.80;;;2.10
70050;BMP180;57391;51.306;22.680;2022-12-07T20:07:10;98860.00;;;2.20
70050;BMP180;57391;51.306;22.680;2022-12-07T20:09:43;98859.80;;;2.20
70050;BMP180;57391;51.306;22.680;2022-12-07T20:12:10;98857.00;;;2.20
70050;BMP180;57391;51.306;22.680;2022-12-07T20:14:57;98858.60;;;2.20
70050;BMP180;57391;51.306;22.680;2022-12-07T20:17:25;98862.40;;;2.20
70050;BMP180;57391;51.306;22.680;2022-12-07T20:19:53;98862.60;;;2.20
70050;BMP180;57391;51.306;22.680;2022-12-07T20:22:20;98860.40;;;2.24
70050;BMP180;57391;51.306;22.680;2022-12-07T20:24:48;98863.20;;;2.20
70050;BMP180;57391;51.306;22.680;2022-12-07T20:27:15;98865.00;;;2.20
70050;BMP180;57391;51.306;22.680;2022-12-07T20:29:44;98860.00;;;2.20
70050;BMP180;57391;51.306;22.680;2022-12-07T20:32:12;98860.20;;;2.20
70050;BMP180;57391;51.306;22.680;2022-12-07T20:34:40;98863.80;;;2.20
70050;BMP180;57391;51.306;22.680;2022-12-07T20:37:07;98865.20;;;2.20
70050;BMP180;57391;51.306;22.680;2022-12-07T20:39:34;98871.60;;;2.20
70050;BMP180;57391;51.306;22.680;2022-12-07T20:42:03;98878.00;;;2.20
70050;BMP180;57391;51.306;22.680;2022-12-07T20:44:49;98880.20;;;2.20
70050;BMP180;57391;51.306;22.680;2022-12-07T20:47:17;98877.00;;;2.16
70050;BMP180;57391;51.306;22.680;2022-12-07T20:49:44;98885.40;;;2.12
70050;BMP180;57391;51.306;22.680;2022-12-07T20:52:12;98887.00;;;2.10
70050;BMP180;57391;51.306;22.680;2022-12-07T20:54:40;98889.00;;;2.10
70050;BMP180;57391;51.306;22.680;2022-12-07T20:57:08;98886.60;;;2.10
70050;BMP180;57391;51.306;22.680;2022-12-07T20:59:35;98893.60;;;2.10
70050;BMP180;57391;51.306;22.680;2022-12-07T21:02:03;98889.80;;;2.10
70050;BMP180;57391;51.306;22.680;2022-12-07T21:04:31;98895.40;;;2.10
70050;BMP180;57391;51.306;22.680;2022-12-07T21:06:58;98897.80;;;2.10
70050;BMP180;57391;51.306;22.680;2022-12-07T21:09:26;98903.80;;;2.10
70050;BMP180;57391;51.306;22.680;2022-12-07T21:11:54;98909.00;;;2.10
70050;BMP180;57391;51.306;22.680;2022-12-07T21:14:22;98909.40;;;2.10
70050;BMP180;57391;51.306;22.680;2022-12-07T21:16:50;98904.60;;;2.10
70050;BMP180;57391;51.306;22.680;2022-12-07T21:19:17;98909.60;;;2.10
70050;BMP180;57391;51.306;22.680;2022-12-07T21:21:45;98913.60;;;2.10
70050;BMP180;57391;51.306;22.680;2022-12-07T21:24:16;98919.20;;;2.10
70050;BMP180;57391;51.306;22.680;2022-12-07T21:26:47;98926.40;;;2.10
70050;BMP180;57391;51.306;22.680;2022-12-07T21:29:18;98924.20;;;2.12
70050;BMP180;57391;51.306;22.680;2022-12-07T21:31:49;98924.20;;;2.18
70050;BMP180;57391;51.306;22.680;2022-12-07T21:34:19;98928.00;;;2.10
70050;BMP180;57391;51.306;22.680;2022-12-07T21:36:58;98925.60;;;2.10